Time;durP1;ratioP1;P1;durP2;ratioP2;P2;SDS_P1;SDS_P2;PMS_P1;PMS_P2;Temp;Humidity;BMP_temperature;BMP_pressure;BME280_temperature;BME280_humidity;BME280_pressure;Samples;Min_cycle;Max_cycle;Signal;HPM_P1;HPM_P2
2022/08/25 00:01:52;;;;;;;24.30;10.48;;;;;;;18.82;100.00;99171.59;2195195;81;20976;-78
2022/08/25 00:04:53;;;;;;;25.60;10.08;;;;;;;18.81;100.00;99169.84;2196027;81;20945;-83
2022/08/25 00:07:53;;;;;;;26.37;10.95;;;;;;;18.81;100.00;99168.08;2195392;81;20997;-85
2022/08/25 00:10:54;;;;;;;23.12;10.30;;;;;;;18.83;100.00;99163.63;2195669;81;20972;-82
2022/08/25 00:13:54;;;;;;;30.02;10.38;;;;;;;18.83;100.00;99168.92;2195321;81;20922;-83
2022/08/25 00:16:54;;;;;;;27.85;9.68;;;;;;;18.81;100.00;99168.08;2195045;81;21354;-85
2022/08/25 00:19:55;;;;;;;26.30;9.70;;;;;;;18.78;100.00;99166.80;2194971;81;21024;-82
2022/08/25 00:22:55;;;;;;;29.55;10.75;;;;;;;18.76;100.00;99162.86;2194991;81;20973;-85
2022/08/25 00:25:56;;;;;;;27.55;8.65;;;;;;;18.74;100.00;99166.42;2194889;81;21345;-83
2022/08/25 00:28:56;;;;;;;22.07;9.10;;;;;;;18.74;100.00;99167.30;2195439;81;20949;-83
2022/08/25 00:31:56;;;;;;;16.67;8.88;;;;;;;18.72;100.00;99154.55;2195384;81;20969;-83
2022/08/25 00:34:57;;;;;;;24.20;10.10;;;;;;;18.72;100.00;99163.80;2195464;81;21004;-83
2022/08/25 00:37:57;;;;;;;27.22;9.38;;;;;;;18.72;100.00;99158.97;2194714;80;21036;-80
2022/08/25 00:41:06;;;;;;;22.98;9.83;;;;;;;18.74;100.00;99164.66;2196598;81;21024;-84
2022/08/25 00:44:07;;;;;;;19.37;9.10;;;;;;;18.75;100.00;99162.88;2210921;80;20956;-81
2022/08/25 00:47:08;;;;;;;14.95;8.23;;;;;;;18.75;100.00;99162.88;2210650;80;21607;-84
2022/08/25 00:50:08;;;;;;;14.75;9.10;;;;;;;18.77;100.00;99167.70;2210724;80;21016;-82
2022/08/25 00:53:08;;;;;;;47.35;9.13;;;;;;;18.77;100.00;99163.73;2210947;81;20956;-79
2022/08/25 00:56:08;;;;;;;24.43;9.33;;;;;;;18.76;100.00;99165.50;2210653;80;21320;-81
2022/08/25 00:59:09;;;;;;;18.77;7.97;;;;;;;18.80;100.00;99157.52;2210806;80;21006;-81
2022/08/25 01:02:09;;;;;;;26.02;8.63;;;;;;;18.80;100.00;99155.75;2211285;80;21039;-85
2022/08/25 01:05:10;;;;;;;25.12;11.20;;;;;;;18.81;100.00;99161.46;2211339;81;20995;-82
2022/08/25 01:08:10;;;;;;;19.55;9.00;;;;;;;18.82;100.00;99159.69;2211281;79;21031;-82
2022/08/25 01:11:10;;;;;;;30.48;10.28;;;;;;;18.81;100.00;99160.14;2210428;80;20948;-82
2022/08/25 01:14:11;;;;;;;27.75;9.78;;;;;;;18.82;100.00;99164.98;2210713;81;21008;-83
2022/08/25 01:17:11;;;;;;;20.00;8.95;;;;;;;18.80;100.00;99165.00;2211631;80;20980;-84
2022/08/25 01:20:13;;;;;;;19.45;9.55;;;;;;;18.78;100.00;99161.52;2212934;80;20969;-80
2022/08/25 01:23:12;;;;;;;20.48;9.55;;;;;;;18.77;100.00;99159.77;2211866;80;21008;-83
2022/08/25 02:00:00;;;;;;;25.08;9.35;;;;;;;18.76;100.00;99154.92;2349062;76;22330;-83
2022/08/25 02:03:00;;;;;;;22.40;10.18;;;;;;;18.68;100.00;99151.53;2318019;77;20987;-84
2022/08/25 02:06:00;;;;;;;19.75;9.53;;;;;;;18.66;100.00;99148.03;2318025;77;20958;-82
2022/08/25 02:09:01;;;;;;;20.82;10.03;;;;;;;18.66;100.00;99151.13;2317918;77;20920;-82
2022/08/25 02:12:01;;;;;;;15.00;9.63;;;;;;;18.66;100.00;99148.48;2317792;77;20947;-83
2022/08/25 02:15:02;;;;;;;31.52;10.18;;;;;;;18.64;100.00;99145.87;2317771;77;20927;-82
2022/08/25 02:18:02;;;;;;;23.15;9.53;;;;;;;18.62;100.00;99144.14;2317437;77;20979;-82
2022/08/25 02:21:02;;;;;;;24.77;10.45;;;;;;;18.61;100.00;99144.59;2317319;77;21153;-82
2022/08/25 02:24:03;;;;;;;27.73;10.10;;;;;;;18.62;100.00;99142.83;2317480;77;20947;-81
2022/08/25 02:27:03;;;;;;;29.25;11.18;;;;;;;18.59;100.00;99145.03;2317282;77;20966;-82
2022/08/25 02:30:04;;;;;;;17.17;10.50;;;;;;;18.57;100.00;99149.92;2317346;77;20911;-82
2022/08/25 02:33:04;;;;;;;28.25;10.40;;;;;;;18.53;100.00;99145.13;2316916;77;20935;-82
2022/08/25 02:36:04;;;;;;;26.90;10.78;;;;;;;18.50;100.00;99140.34;2316951;77;20930;-82
2022/08/25 02:39:06;;;;;;;29.40;11.30;;;;;;;18.48;100.00;99135.52;2317295;77;21300;-83
2022/08/25 02:42:06;;;;;;;25.02;11.55;;;;;;;18.45;100.00;99136.44;2316961;77;21006;-82
2022/08/25 02:45:07;;;;;;;23.67;10.82;;;;;;;18.44;100.00;99131.61;2317189;77;21351;-83
2022/08/25 02:48:07;;;;;;;24.25;10.43;;;;;;;18.42;100.00;99134.72;2317600;77;20932;-82
2022/08/25 02:51:08;;;;;;;25.43;10.63;;;;;;;18.39;100.00;99125.52;2316636;77;20966;-80
2022/08/25 02:54:08;;;;;;;16.70;9.38;;;;;;;18.38;100.00;99129.50;2315876;77;20907;-79
2022/08/25 02:57:10;;;;;;;28.73;10.58;;;;;;;18.35;100.00;99119.85;2316442;77;21274;-82
2022/08/25 03:00:09;;;;;;;25.27;10.23;;;;;;;18.31;100.00;99117.28;2302772;77;20953;-81
2022/08/25 03:03:09;;;;;;;18.32;9.25;;;;;;;18.30;100.00;99114.21;2303071;77;20949;-81
2022/08/25 03:06:10;;;;;;;20.15;10.35;;;;;;;18.27;100.00;99115.13;2303328;77;20894;-82
2022/08/25 03:09:10;;;;;;;19.02;10.38;;;;;;;18.23;100.00;99116.07;2303511;77;20976;-81
2022/08/25 03:12:11;;;;;;;16.10;9.93;;;;;;;18.23;100.00;99114.75;2303065;77;21254;-80
2022/08/25 03:15:11;;;;;;;22.82;10.90;;;;;;;18.21;100.00;99113.91;2303227;77;20890;-81
2022/08/25 03:18:11;;;;;;;23.50;10.70;;;;;;;18.20;100.00;99117.41;2303017;77;20914;-82
2022/08/25 03:21:12;;;;;;;27.30;11.43;;;;;;;18.16;100.00;99114.38;2303128;77;20949;-80
2022/08/25 03:24:12;;;;;;;20.25;10.78;;;;;;;18.12;100.00;99116.20;2302998;77;21313;-82
2022/08/25 03:27:13;;;;;;;30.50;11.45;;;;;;;18.10;100.00;99111.83;2302599;77;20988;-83
2022/08/25 03:30:13;;;;;;;21.62;10.72;;;;;;;18.08;100.00;99114.48;2302809;77;20953;-81
2022/08/25 03:33:14;;;;;;;16.60;9.55;;;;;;;18.04;100.00;99116.75;2302631;77;20979;-80
2022/08/25 03:36:14;;;;;;;23.20;10.70;;;;;;;18.00;100.00;99110.20;2302225;77;21313;-83
2022/08/25 03:39:14;;;;;;;18.73;10.03;;;;;;;17.98;100.00;99104.08;2302415;77;20917;-81
2022/08/25 03:42:15;;;;;;;27.10;10.40;;;;;;;18.00;100.00;99110.20;2303025;77;20953;-81
2022/08/25 03:45:15;;;;;;;20.77;11.12;;;;;;;17.99;100.00;99115.06;2302663;77;20945;-82
2022/08/25 03:48:15;;;;;;;16.40;9.40;;;;;;;17.96;100.00;99108.50;2302631;77;20980;-81
2022/08/25 03:51:16;;;;;;;17.80;8.23;;;;;;;17.92;100.00;99104.16;2303281;77;20948;-81
2022/08/25 03:54:16;;;;;;;19.17;9.48;;;;;;;17.89;100.00;99107.72;2302726;77;21281;-81
2022/08/25 03:57:19;;;;;;;12.07;7.95;;;;;;;17.87;100.00;99106.86;2302907;77;20945;-81
2022/08/25 04:00:17;;;;;;;21.05;9.33;;;;;;;17.86;100.00;99107.76;2285005;76;20954;-81
2022/08/25 04:03:18;;;;;;;53.73;11.53;;;;;;;17.87;100.00;99110.83;2285199;78;21302;-80
2022/08/25 04:06:18;;;;;;;15.55;9.85;;;;;;;17.92;100.00;99104.16;2285747;78;20974;-82
2022/08/25 04:09:18;;;;;;;13.22;8.85;;;;;;;17.95;100.00;99105.44;2285551;78;20943;-81
2022/08/25 04:12:19;;;;;;;13.65;9.23;;;;;;;18.00;100.00;99106.25;2285255;78;20958;-81
2022/08/25 04:15:19;;;;;;;19.82;9.13;;;;;;;17.99;100.00;99101.86;2284873;78;20947;-81
2022/08/25 04:18:20;;;;;;;14.75;8.95;;;;;;;18.01;100.00;99100.95;2284536;78;21271;-82
2022/08/25 04:21:20;;;;;;;21.35;9.40;;;;;;;18.06;100.00;99108.36;2284333;78;20907;-81
2022/08/25 04:24:21;;;;;;;17.82;9.48;;;;;;;18.12;100.00;99105.62;2283439;78;20938;-81
2022/08/25 04:27:21;;;;;;;19.17;9.30;;;;;;;18.19;100.00;99102.89;2283499;78;20918;-81
2022/08/25 04:30:21;;;;;;;21.93;9.83;;;;;;;18.22;100.00;99104.20;2283373;78;20950;-82
2022/08/25 04:33:22;;;;;;;21.10;12.25;;;;;;;18.25;100.00;99102.84;2282999;78;20907;-82
2022/08/25 04:36:22;;;;;;;20.27;11.08;;;;;;;18.30;100.00;99106.28;2282998;78;20950;-83
2022/08/25 04:39:23;;;;;;;19.27;10.60;;;;;;;18.33;100.00;99103.59;2282910;78;20993;-82
2022/08/25 04:42:25;;;;;;;21.87;10.93;;;;;;;18.37;100.00;99094.27;2283482;78;20895;-83
2022/08/25 04:45:23;;;;;;;16.00;9.95;;;;;;;18.42;100.00;99092.44;2283640;78;20879;-82
2022/08/25 04:48:24;;;;;;;18.73;9.65;;;;;;;18.50;100.00;99097.59;2283977;78;20981;-82
2022/08/25 04:51:24;;;;;;;25.25;10.00;;;;;;;18.60;100.00;99091.71;2283281;78;20950;-81
2022/08/25 04:54:26;;;;;;;15.72;9.33;;;;;;;18.65;100.00;99089.90;2283413;78;21571;-82
2022/08/25 04:57:25;;;;;;;18.95;9.25;;;;;;;18.72;100.00;99082.28;2283092;78;21737;-79
2022/08/25 05:00:25;;;;;;;19.62;8.48;;;;;;;18.79;100.00;99091.86;2282502;76;21036;-80
2022/08/25 05:03:26;;;;;;;21.17;10.00;;;;;;;18.87;100.00;99086.43;2283199;78;21380;-81
2022/08/25 05:06:27;;;;;;;20.20;9.15;;;;;;;18.95;100.00;99084.52;2283666;78;20938;-82
2022/08/25 05:09:27;;;;;;;18.27;9.40;;;;;;;19.04;100.00;99083.03;2284394;78;20919;-83
2022/08/25 05:12:27;;;;;;;21.70;9.15;;;;;;;19.20;100.00;99083.65;2285164;78;20911;-84
2022/08/25 05:18:46;;;;;;;21.33;8.80;;;;;;;19.43;100.00;99082.75;2285189;78;20930;-86
2022/08/25 05:21:47;;;;;;;17.27;8.90;;;;;;;19.55;100.00;99085.17;2284523;78;20918;-87
2022/08/25 05:24:47;;;;;;;16.80;9.10;;;;;;;19.68;100.00;99088.44;2283166;78;21307;-85
2022/08/25 05:27:47;;;;;;;21.65;9.10;;;;;;;19.81;100.00;99089.05;2283139;78;20915;-85
2022/08/25 05:30:48;;;;;;;20.55;9.23;;;;;;;19.90;100.00;99094.15;2283058;78;20922;-86
2022/08/25 05:33:48;;;;;;;17.87;9.45;;;;;;;20.07;100.00;99088.52;2283427;78;21315;-85
2022/08/25 05:36:49;;;;;;;44.53;37.70;;;;;;;20.18;100.00;99090.47;2283987;78;20922;-85
2022/08/25 05:39:49;;;;;;;22.10;12.03;;;;;;;20.30;100.00;99092.83;2284131;78;20969;-86
2022/08/25 05:42:49;;;;;;;19.57;9.23;;;;;;;20.44;100.00;99093.41;2283716;78;20955;-87
2022/08/25 05:45:50;;;;;;;16.90;9.03;;;;;;;20.55;100.00;99091.36;2282573;78;21591;-87
2022/08/25 05:48:50;;;;;;;23.30;9.50;;;;;;;20.78;100.00;99095.23;2282751;78;20930;-86
2022/08/25 05:51:51;;;;;;;19.90;9.35;;;;;;;20.97;99.91;99086.78;2282515;78;20978;-82
2022/08/25 05:54:51;;;;;;;21.90;8.65;;;;;;;21.13;98.45;99083.72;2282208;78;21396;-86
2022/08/25 05:57:52;;;;;;;21.33;9.13;;;;;;;21.11;98.14;99085.55;2282282;78;21302;-85
2022/08/25 06:00:54;;;;;;;16.67;8.53;;;;;;;21.25;97.55;99086.95;2251025;78;20946;-84
2022/08/25 06:03:54;;;;;;;21.62;8.53;;;;;;;21.40;97.05;99089.63;2279353;78;20913;-84
2022/08/25 06:06:55;;;;;;;24.00;9.68;;;;;;;21.39;96.65;99092.33;2279588;78;20918;-85
2022/08/25 06:09:55;;;;;;;19.70;9.25;;;;;;;21.39;96.64;99104.28;2279019;78;21868;-86
2022/08/25 06:12:57;;;;;;;21.48;9.03;;;;;;;21.34;96.61;99095.11;2250638;78;20878;-86
2022/08/25 06:15:58;;;;;;;22.35;9.75;;;;;;;21.32;96.46;99103.58;2278439;78;20921;-87
2022/08/25 06:18:59;;;;;;;21.80;9.45;;;;;;;21.24;96.42;99098.48;2279150;77;20930;-82
2022/08/25 06:21:59;;;;;;;27.37;10.43;;;;;;;21.27;96.95;99105.03;2279003;78;20921;-84
2022/08/25 06:24:59;;;;;;;25.45;9.20;;;;;;;21.26;96.84;99101.09;2279370;78;21400;-87
2022/08/25 06:27:59;;;;;;;23.15;9.98;;;;;;;21.30;96.92;99096.11;2279832;78;21306;-86
2022/08/25 06:31:00;;;;;;;121.85;15.20;;;;;;;21.39;97.05;99105.15;2279402;78;20953;-86
2022/08/25 06:34:00;;;;;;;22.98;9.88;;;;;;;21.67;97.20;99105.23;2278887;78;20930;-86
2022/08/25 06:37:01;;;;;;;18.80;9.80;;;;;;;21.90;96.22;99100.16;2279494;78;20918;-85
2022/08/25 06:40:01;;;;;;;22.77;9.53;;;;;;;21.89;94.73;99102.40;2279990;78;21428;-85
2022/08/25 06:43:05;;;;;;;23.50;9.23;;;;;;;21.95;94.85;99098.69;2279667;78;20953;-85
2022/08/25 06:46:02;;;;;;;23.15;9.75;;;;;;;22.03;95.35;99104.67;2280482;78;20934;-86
2022/08/25 06:49:02;;;;;;;23.38;10.03;;;;;;;22.23;94.82;99108.92;2280803;78;20945;-85
2022/08/25 06:52:03;;;;;;;20.95;9.80;;;;;;;22.37;93.31;99108.95;2279823;78;21306;-86
2022/08/25 06:55:03;;;;;;;15.05;8.50;;;;;;;22.37;93.63;99111.14;2281026;78;20936;-84
2022/08/25 06:58:03;;;;;;;24.52;9.08;;;;;;;22.53;93.52;99106.20;2281234;78;20945;-84
2022/08/25 07:01:04;;;;;;;16.00;8.43;;;;;;;22.75;93.87;99108.60;2314564;77;20990;-84
2022/08/25 07:04:04;;;;;;;28.57;9.15;;;;;;;23.00;92.56;99098.48;2314562;77;20883;-81
2022/08/25 07:07:05;;;;;;;22.85;9.05;;;;;;;23.13;92.16;99109.13;2315020;77;20970;-82
2022/08/25 07:10:05;;;;;;;25.40;9.58;;;;;;;23.36;91.81;99104.31;2313819;77;21460;-81
2022/08/25 07:13:05;;;;;;;21.05;9.50;;;;;;;23.67;91.33;99104.13;2314526;77;20919;-83
2022/08/25 07:16:14;;;;;;;28.05;9.95;;;;;;;23.85;89.97;99096.78;2314195;77;20978;-82
2022/08/25 07:19:10;;;;;;;19.77;8.30;;;;;;;23.97;89.20;99100.31;2313617;77;20989;-82
2022/08/25 07:22:10;;;;;;;23.20;9.20;;;;;;;24.06;89.47;99107.08;2313854;77;20923;-85
2022/08/25 07:25:10;;;;;;;27.95;9.28;;;;;;;24.21;87.67;99097.61;2314019;77;20967;-85
2022/08/25 07:28:11;;;;;;;25.68;8.65;;;;;;;24.32;87.61;99096.33;2314779;77;21310;-85
2022/08/25 07:31:11;;;;;;;29.70;9.08;;;;;;;24.54;86.97;99095.45;2314801;77;20942;-84
2022/08/25 07:37:30;;;;;;;29.75;10.82;;;;;;;24.75;84.69;99096.77;2314007;77;20978;-83
2022/08/25 07:40:30;;;;;;;27.00;10.43;;;;;;;24.82;85.14;99101.86;2314192;77;20974;-83
2022/08/25 07:43:31;;;;;;;30.48;10.75;;;;;;;25.05;83.96;99103.13;2314460;77;20915;-85
2022/08/25 07:46:32;;;;;;;29.63;10.10;;;;;;;25.12;84.02;99107.27;2314692;77;20943;-85
2022/08/25 07:49:32;;;;;;;25.35;9.73;;;;;;;25.31;83.78;99108.70;2314612;77;20912;-86
2022/08/25 07:52:32;;;;;;;29.90;9.65;;;;;;;25.54;82.59;99105.02;2314068;77;20943;-84
2022/08/25 07:55:35;;;;;;;31.45;10.20;;;;;;;25.68;82.65;99106.63;2314941;77;20912;-82
2022/08/25 07:58:33;;;;;;;26.90;10.63;;;;;;;25.84;81.15;99110.33;2314088;77;20939;-82
2022/08/25 08:01:33;;;;;;;23.62;9.05;;;;;;;25.76;79.52;99107.61;2314148;77;20895;-83
2022/08/25 08:04:34;;;;;;;44.85;11.10;;;;;;;25.83;80.14;99105.92;2314769;77;20963;-84
2022/08/25 08:07:34;;;;;;;37.88;10.00;;;;;;;26.07;78.43;99107.95;2314928;77;21331;-84
2022/08/25 08:10:34;;;;;;;32.33;10.35;;;;;;;26.12;78.11;99103.73;2314235;77;20974;-84
2022/08/25 08:13:35;;;;;;;34.27;9.33;;;;;;;26.03;76.53;99097.88;2313707;77;20973;-83
2022/08/25 08:16:36;;;;;;;30.88;9.18;;;;;;;26.09;78.10;99106.08;2314280;77;21117;-84
2022/08/25 08:19:36;;;;;;;39.63;9.40;;;;;;;26.16;76.50;99108.00;2314220;77;21346;-83
2022/08/25 08:22:36;;;;;;;35.70;9.53;;;;;;;26.31;75.61;99112.61;2313825;77;20884;-78
2022/08/25 08:25:36;;;;;;;177.93;18.20;;;;;;;26.51;75.41;99108.54;2315142;77;20916;-83
2022/08/25 08:28:37;;;;;;;30.62;9.75;;;;;;;26.60;74.63;99105.41;2314358;77;21338;-84
2022/08/25 08:31:37;;;;;;;37.70;10.35;;;;;;;26.82;74.91;99105.20;2314993;77;20915;-84
2022/08/25 08:34:39;;;;;;;28.62;9.40;;;;;;;27.09;73.29;99104.81;2314670;77;20895;-82
2022/08/25 08:37:40;;;;;;;36.98;10.43;;;;;;;27.00;73.35;99107.50;2315324;77;20946;-82
2022/08/25 08:40:39;;;;;;;38.08;9.75;;;;;;;27.15;73.41;99104.03;2314574;77;21398;-82
2022/08/25 08:43:40;;;;;;;44.00;9.88;;;;;;;27.41;73.48;99097.78;2314701;77;20903;-84
2022/08/25 08:46:40;;;;;;;31.33;9.43;;;;;;;27.44;72.01;99097.62;2314328;77;20943;-84
2022/08/25 08:49:40;;;;;;;38.90;10.95;;;;;;;27.43;72.20;99103.93;2313896;77;20946;-84
2022/08/25 08:52:40;;;;;;;26.52;9.45;;;;;;;27.31;70.87;99101.89;2314197;77;20887;-85
2022/08/25 08:55:41;;;;;;;24.75;9.35;;;;;;;27.08;71.71;99103.95;2314656;77;20950;-85
2022/08/25 08:58:41;;;;;;;29.30;10.32;;;;;;;27.07;73.06;99104.90;2314324;77;21393;-84
2022/08/25 09:01:41;;;;;;;40.23;9.93;;;;;;;27.18;72.08;99104.34;2301285;77;20921;-84
2022/08/25 09:04:43;;;;;;;34.38;10.13;;;;;;;27.36;72.35;99099.84;2301773;77;20996;-84
2022/08/25 09:07:42;;;;;;;26.20;10.32;;;;;;;27.57;71.73;99098.70;2302036;77;21012;-84
2022/08/25 09:10:43;;;;;;;29.70;10.05;;;;;;;27.76;71.50;99096.83;2301620;77;21009;-85
2022/08/25 09:13:43;;;;;;;33.78;10.50;;;;;;;27.82;70.34;99087.11;2301066;77;20937;-85
2022/08/25 09:16:59;;;;;;;41.30;10.68;;;;;;;27.77;68.74;99079.79;2301782;77;20909;-81
2022/08/25 09:19:59;;;;;;;34.43;8.90;;;;;;;27.84;69.56;99083.00;2301352;77;20936;-84
2022/08/25 09:22:59;;;;;;;36.50;8.48;;;;;;;28.17;67.48;99078.45;2301259;77;21332;-84
2022/08/25 09:26:00;;;;;;;34.80;8.43;;;;;;;28.42;68.25;99078.43;2301123;77;20948;-83
2022/08/25 09:29:01;;;;;;;38.73;9.30;;;;;;;28.70;67.08;99081.77;2300468;77;20877;-84
2022/08/25 09:32:01;;;;;;;31.07;8.40;;;;;;;28.98;65.66;99083.24;2301347;77;20918;-85
2022/08/25 09:35:04;;;;;;;31.55;7.50;;;;;;;29.20;65.70;99081.48;2301551;77;20910;-84
2022/08/25 09:38:03;;;;;;;35.48;9.15;;;;;;;29.36;63.00;99082.75;2276076;77;20964;-86
2022/08/25 09:41:04;;;;;;;29.42;7.97;;;;;;;29.31;61.61;99077.66;2301526;77;21317;-84
2022/08/25 09:44:05;;;;;;;32.78;8.68;;;;;;;29.33;63.17;99074.39;2302197;77;21407;-86
2022/08/25 09:47:05;;;;;;;36.40;8.53;;;;;;;29.49;61.77;99075.73;2301726;77;20953;-83
2022/08/25 09:50:05;;;;;;;39.78;8.93;;;;;;;29.36;60.86;99074.69;2302162;77;20929;-83
2022/08/25 09:53:05;;;;;;;38.20;8.10;;;;;;;29.29;62.64;99076.02;2301447;77;21348;-85
2022/08/25 09:56:06;;;;;;;35.75;7.90;;;;;;;29.47;61.46;99070.41;2301730;77;20893;-86
2022/08/25 09:59:06;;;;;;;33.85;7.65;;;;;;;29.68;61.27;99062.86;2302041;77;20937;-85
2022/08/25 10:02:07;;;;;;;30.48;7.70;;;;;;;30.01;60.34;99062.58;2301482;77;20952;-84
2022/08/25 10:05:08;;;;;;;32.08;7.62;;;;;;;30.16;58.64;99060.72;2301915;77;21516;-85
2022/08/25 10:08:08;;;;;;;29.50;7.08;;;;;;;30.25;58.59;99060.12;2301579;77;20953;-85
2022/08/25 10:11:09;;;;;;;30.02;6.97;;;;;;;30.46;59.06;99052.50;2300792;77;21052;-85
2022/08/25 10:14:09;;;;;;;25.52;7.65;;;;;;;30.56;57.90;99056.30;2301161;77;20948;-86
2022/08/25 10:17:09;;;;;;;34.40;8.35;;;;;;;30.59;58.16;99047.19;2301095;77;20901;-84
2022/08/25 10:20:10;;;;;;;25.08;7.08;;;;;;;30.67;57.01;99042.16;2301230;77;21357;-84
2022/08/25 10:23:10;;;;;;;31.20;7.92;;;;;;;30.76;56.90;99040.67;2301714;77;20972;-85
2022/08/25 10:26:11;;;;;;;26.27;6.95;;;;;;;30.81;56.70;99036.69;2301473;77;20945;-83
2022/08/25 10:29:11;;;;;;;25.20;6.92;;;;;;;30.70;55.79;99029.83;2302089;77;20929;-84
2022/08/25 10:32:11;;;;;;;28.02;6.72;;;;;;;30.61;57.34;99028.61;2300995;77;20925;-84
2022/08/25 10:35:12;;;;;;;27.95;7.55;;;;;;;30.67;56.87;99028.68;2300908;77;20913;-86
2022/08/25 10:38:12;;;;;;;36.15;7.72;;;;;;;30.64;55.94;99023.50;2300988;77;20949;-85
2022/08/25 10:41:13;;;;;;;32.03;6.95;;;;;;;30.64;55.94;99023.50;2300737;77;20945;-87
2022/08/25 10:47:32;;;;;;;29.32;7.35;;;;;;;30.88;54.58;99025.87;2300100;77;20910;-85
2022/08/25 10:50:32;;;;;;;32.28;7.12;;;;;;;30.98;54.05;99016.19;2301428;77;20948;-86
2022/08/25 10:53:32;;;;;;;25.57;7.30;;;;;;;31.13;53.13;99013.40;2300729;77;20922;-86
2022/08/25 10:56:34;;;;;;;29.92;6.08;;;;;;;31.18;49.78;99013.97;2300470;77;20949;-84
2022/08/25 10:59:33;;;;;;;25.85;6.62;;;;;;;31.11;51.21;99005.91;2302054;76;21666;-85
2022/08/25 11:02:34;;;;;;;26.27;6.65;;;;;;;31.24;51.39;99008.19;2313400;77;20943;-84
2022/08/25 11:05:38;;;;;;;30.90;6.45;;;;;;;31.31;51.09;99002.25;2313365;77;20946;-86
2022/08/25 11:08:34;;;;;;;36.53;7.15;;;;;;;31.24;49.71;98999.61;2314367;77;21004;-84
2022/08/25 11:11:35;;;;;;;33.13;7.42;;;;;;;31.16;48.88;98993.86;2314385;77;21370;-85
2022/08/25 11:14:35;;;;;;;27.82;7.17;;;;;;;31.12;47.23;98992.80;2315013;77;20888;-85
2022/08/25 11:17:36;;;;;;;67.70;9.48;;;;;;;31.08;49.02;98997.55;2315231;77;21006;-82
2022/08/25 11:20:36;;;;;;;32.40;8.03;;;;;;;31.09;48.67;98992.53;2315496;77;20903;-84
2022/08/25 11:23:37;;;;;;;26.73;6.83;;;;;;;31.27;47.41;98990.44;2314994;77;21331;-85
2022/08/25 11:26:38;;;;;;;30.80;7.65;;;;;;;31.34;47.89;98982.30;2314933;77;21370;-85
2022/08/25 11:29:37;;;;;;;24.63;5.78;;;;;;;31.48;48.33;98988.91;2314641;77;20915;-85
2022/08/25 11:32:38;;;;;;;45.45;7.15;;;;;;;31.60;46.68;98977.24;2315645;77;20979;-85
2022/08/25 11:35:38;;;;;;;29.00;7.53;;;;;;;31.64;46.65;98977.88;2315105;77;21282;-86
2022/08/25 11:38:39;;;;;;;25.50;5.62;;;;;;;31.62;46.19;98987.44;2314520;77;20946;-85
2022/08/25 11:41:39;;;;;;;26.70;5.72;;;;;;;31.53;45.78;98983.19;2314501;77;20982;-84
2022/08/25 11:44:39;;;;;;;27.60;6.10;;;;;;;31.53;46.08;98975.96;2313468;77;21338;-85
2022/08/25 11:47:40;;;;;;;22.40;5.90;;;;;;;31.62;46.01;98972.59;2313944;77;20908;-86
2022/08/25 11:50:40;;;;;;;23.38;6.25;;;;;;;31.62;46.07;98973.08;2314074;77;20959;-86
2022/08/25 11:53:41;;;;;;;19.98;6.40;;;;;;;31.67;44.78;98970.91;2313795;77;20876;-86
2022/08/25 11:56:41;;;;;;;20.23;4.97;;;;;;;31.70;44.66;98970.72;2313500;77;21335;-85
2022/08/25 11:59:43;;;;;;;27.30;6.05;;;;;;;31.79;42.09;98967.36;2281429;77;20989;-85
2022/08/25 12:02:44;;;;;;;24.20;5.40;;;;;;;31.83;42.20;98971.55;2300907;77;20941;-85
2022/08/25 12:05:44;;;;;;;23.07;5.60;;;;;;;31.79;40.01;98964.66;2300588;77;21274;-83
2022/08/25 12:08:45;;;;;;;17.35;5.33;;;;;;;31.72;40.80;98965.22;2299915;77;20897;-84
2022/08/25 12:11:48;;;;;;;16.17;4.67;;;;;;;31.87;40.64;98965.44;2299484;77;21659;-85
2022/08/25 12:14:48;;;;;;;20.43;4.58;;;;;;;31.82;39.99;98967.62;2298897;77;20941;-85
2022/08/25 12:17:49;;;;;;;17.77;5.10;;;;;;;31.87;38.83;98963.61;2299679;77;21427;-84
2022/08/25 12:20:49;;;;;;;15.98;5.15;;;;;;;31.84;39.00;98962.97;2299235;77;21377;-83
2022/08/25 12:23:52;;;;;;;17.15;4.35;;;;;;;31.87;39.30;98962.75;2272776;77;20917;-85
2022/08/25 12:26:52;;;;;;;13.78;5.25;;;;;;;31.95;39.33;98956.30;2299370;77;20909;-85
2022/08/25 12:29:52;;;;;;;14.23;4.05;;;;;;;31.99;38.58;98955.09;2300043;77;20918;-85
2022/08/25 12:32:53;;;;;;;15.38;4.42;;;;;;;32.05;36.28;98961.38;2299789;77;20952;-85
2022/08/25 12:35:53;;;;;;;13.32;3.92;;;;;;;32.02;33.16;98956.21;2300348;77;21319;-85
2022/08/25 12:38:53;;;;;;;12.95;4.00;;;;;;;31.90;33.92;98962.52;2301103;77;20949;-85
2022/08/25 12:41:54;;;;;;;14.85;3.87;;;;;;;31.83;33.91;98949.96;2299900;77;20992;-86
2022/08/25 12:44:54;;;;;;;12.03;4.53;;;;;;;31.85;34.64;98951.20;2300385;77;20945;-84
2022/08/25 12:47:56;;;;;;;14.70;4.22;;;;;;;31.92;34.65;98939.83;2301124;77;21293;-85
2022/08/25 12:50:56;;;;;;;14.60;4.37;;;;;;;31.97;35.57;98932.75;2300363;77;20916;-84
2022/08/25 12:53:56;;;;;;;7.83;4.05;;;;;;;32.05;35.50;98931.69;2300652;77;20905;-85
2022/08/25 12:56:56;;;;;;;12.85;4.50;;;;;;;32.09;35.32;98934.56;2300564;77;20973;-84
2022/08/25 12:59:56;;;;;;;11.28;3.83;;;;;;;31.98;33.79;98927.72;2302227;77;21312;-78
2022/08/25 13:02:57;;;;;;;20.70;5.22;;;;;;;32.03;35.26;98932.28;2314522;77;21292;-83
2022/08/25 13:05:57;;;;;;;11.60;3.60;;;;;;;32.10;35.23;98926.84;2314728;77;20947;-80
2022/08/25 13:08:58;;;;;;;15.03;4.50;;;;;;;32.10;33.87;98928.67;2316047;77;20923;-81
2022/08/25 13:11:58;;;;;;;8.10;4.20;;;;;;;32.05;34.30;98922.72;2315702;77;20970;-81
2022/08/25 13:14:59;;;;;;;14.25;4.03;;;;;;;32.00;33.43;98936.56;2316034;77;20923;-81
2022/08/25 13:17:59;;;;;;;11.00;4.20;;;;;;;31.94;32.43;98927.58;2316303;77;20990;-81
2022/08/25 13:20:59;;;;;;;9.35;3.92;;;;;;;31.89;33.05;98932.45;2314715;77;20963;-80
2022/08/25 13:24:00;;;;;;;9.05;4.03;;;;;;;31.93;34.78;98927.20;2315219;77;21282;-80
2022/08/25 13:27:00;;;;;;;22.95;15.35;;;;;;;32.01;34.79;98930.19;2313376;77;20962;-80
2022/08/25 13:30:00;;;;;;;11.88;4.90;;;;;;;32.03;33.75;98922.84;2313245;77;20888;-84
2022/08/25 13:33:01;;;;;;;9.23;3.90;;;;;;;32.11;33.04;98929.91;2313304;77;20899;-86
2022/08/25 13:39:20;;;;;;;15.18;4.47;;;;;;;32.10;33.51;98930.02;2314415;77;20915;-83
2022/08/25 13:42:21;;;;;;;11.57;3.75;;;;;;;31.95;33.14;98927.46;2314979;77;21026;-83
2022/08/25 13:45:21;;;;;;;17.82;4.28;;;;;;;31.95;32.73;98918.50;2314893;77;20974;-83
2022/08/25 13:48:21;;;;;;;8.43;3.42;;;;;;;31.98;33.17;98916.92;2314454;77;21316;-81
2022/08/25 13:51:24;;;;;;;15.50;4.35;;;;;;;32.04;33.33;98915.11;2283800;77;20946;-82
2022/08/25 13:54:24;;;;;;;29.27;6.25;;;;;;;32.08;33.13;98909.89;2315161;77;21259;-84
2022/08/25 13:57:24;;;;;;;14.53;4.72;;;;;;;32.17;33.49;98909.19;2314497;77;20947;-85
2022/08/25 14:00:25;;;;;;;10.70;4.20;;;;;;;32.20;34.10;98910.80;2314061;77;21416;-84
2022/08/25 14:03:25;;;;;;;12.40;4.45;;;;;;;32.12;33.37;98910.03;2314697;77;20947;-85
2022/08/25 14:06:26;;;;;;;13.13;4.70;;;;;;;32.24;33.99;98906.43;2314905;77;20973;-84
2022/08/25 14:09:26;;;;;;;16.85;4.85;;;;;;;32.27;33.78;98902.64;2315574;77;20946;-83
2022/08/25 14:12:27;;;;;;;19.48;6.92;;;;;;;31.98;33.66;98897.53;2315388;77;20998;-82
2022/08/25 14:15:28;;;;;;;13.15;5.35;;;;;;;31.98;33.66;98897.53;2316011;77;20942;-84
2022/08/25 14:18:27;;;;;;;13.60;4.10;;;;;;;32.01;34.89;98899.14;2315648;77;21302;-84
2022/08/25 14:21:28;;;;;;;22.75;5.10;;;;;;;32.01;34.35;98893.75;2315499;77;20892;-84
2022/08/25 14:24:28;;;;;;;13.93;4.50;;;;;;;31.89;34.70;98889.27;2315712;77;20919;-84
2022/08/25 14:27:29;;;;;;;17.00;4.50;;;;;;;31.88;35.47;98888.89;2315757;77;20913;-84
2022/08/25 14:30:29;;;;;;;25.95;4.78;;;;;;;31.88;35.61;98887.05;2315332;77;21272;-85
2022/08/25 14:33:30;;;;;;;18.73;4.58;;;;;;;31.87;35.26;98885.81;2315051;77;20939;-83
2022/08/25 14:36:30;;;;;;;12.68;4.33;;;;;;;31.85;34.81;98885.93;2314768;77;20920;-83
2022/08/25 14:39:30;;;;;;;10.05;4.60;;;;;;;31.83;35.71;98885.67;2315126;77;20958;-85